Belle Mead, New Jersey
Current Conditions -  °F | °C
As of 2:53 PM on Wednesday 17 Dec 2014 (Local Time) from KSMQ Reporting Station
Overcast Overcast  
Wind Chill: 50°   Ceiling: 4500
Heat Index: 50°   Visibility: 10mi
Dew Point: 35°   Wind: 8mph
Humidity: 57%   Direction: 290°WNW
Pressure: 29.83"   Gusts: NA
Location:  40.47°N, 74.66°W
Report Text: KSMQ 171953Z AUTO 29007KT 250V330 10SM OVC045 10/02 A2983 RMK AO2 SLP104 T01000017
Loading
Personal Weather Stations






























Interactive Weather Map New forecast layout! Learn more

10-Day Weather Forecast

Advertisements
Track Severe Weather on mobile